Time;durP1;ratioP1;P1;durP2;ratioP2;P2;SDS_P1;SDS_P2;PMS_P1;PMS_P2;Temp;Humidity;BMP_temperature;BMP_pressure;BME280_temperature;BME280_humidity;BME280_pressure;Samples;Min_cycle;Max_cycle;Signal;HPM_P1;HPM_P2
2022/12/29 00:01:30;;;;;;;11.05;8.93;;;17.00;49.40;;;;;;5033748;28;20211;-55
2022/12/29 00:03:57;;;;;;;12.20;8.93;;;17.10;49.60;;;;;;5057651;28;20187;-55
2022/12/29 00:06:24;;;;;;;10.25;8.70;;;17.00;49.50;;;;;;5039366;28;20235;-55
2022/12/29 00:08:51;;;;;;;10.43;7.90;;;17.00;49.50;;;;;;5039090;28;20673;-55
2022/12/29 00:11:21;;;;;;;11.02;8.30;;;17.00;49.60;;;;;;5046950;28;20196;-55
2022/12/29 00:16:33;;;;;;;10.02;8.10;;;16.90;49.60;;;;;;5019000;28;20192;-54
2022/12/29 00:35:57;;;;;;;8.57;7.05;;;16.90;49.90;;;;;;5038452;28;20191;-55
2022/12/29 00:44:06;;;;;;;9.32;6.38;;;16.90;50.00;;;;;;4975282;28;20221;-55
2022/12/29 00:46:33;;;;;;;8.02;6.20;;;16.80;49.80;;;;;;5020243;28;20234;-54
2022/12/29 00:51:45;;;;;;;8.07;5.78;;;16.80;49.90;;;;;;5056050;28;20171;-55
2022/12/29 00:54:12;;;;;;;8.10;5.85;;;16.90;50.00;;;;;;5038851;28;20286;-55
2022/12/29 00:56:39;;;;;;;7.72;6.25;;;16.80;50.00;;;;;;5055889;28;20740;-55
2022/12/29 00:59:09;;;;;;;7.82;5.93;;;16.80;49.90;;;;;;5038240;28;20280;-55
2022/12/29 01:01:37;;;;;;;7.72;5.68;;;16.80;50.00;;;;;;5053095;28;20199;-55
2022/12/29 01:04:04;;;;;;;7.22;5.50;;;16.80;49.90;;;;;;5018457;28;20299;-55
2022/12/29 01:06:31;;;;;;;7.63;5.40;;;16.80;50.00;;;;;;5036475;28;20185;-55
2022/12/29 01:11:43;;;;;;;7.30;5.57;;;16.80;50.00;;;;;;5036246;28;20536;-54
2022/12/29 01:14:12;;;;;;;7.65;5.78;;;16.80;50.00;;;;;;5017380;28;20204;-55
2022/12/29 01:16:39;;;;;;;7.13;5.38;;;16.80;50.60;;;;;;5018346;28;20568;-55
2022/12/29 01:19:06;;;;;;;6.07;5.05;;;16.80;50.00;;;;;;5035971;28;20274;-55
2022/12/29 01:21:33;;;;;;;8.18;5.72;;;16.80;50.00;;;;;;5018289;28;20681;-54
2022/12/29 01:24:00;;;;;;;7.63;5.20;;;16.70;50.00;;;;;;5035927;28;20196;-55
2022/12/29 01:26:27;;;;;;;7.28;5.50;;;16.70;50.00;;;;;;5018272;28;20196;-55
2022/12/29 01:28:55;;;;;;;6.30;5.22;;;16.70;50.00;;;;;;5036377;28;20740;-55
2022/12/29 01:31:24;;;;;;;6.30;5.20;;;16.70;50.00;;;;;;5018199;28;20193;-55
2022/12/29 01:33:51;;;;;;;6.35;5.20;;;16.70;50.00;;;;;;5017939;28;20204;-55
2022/12/29 01:36:20;;;;;;;7.13;5.00;;;16.70;50.10;;;;;;5017751;28;20226;-54
2022/12/29 01:38:49;;;;;;;6.57;5.18;;;16.70;50.10;;;;;;5017703;28;20215;-54
2022/12/29 01:41:16;;;;;;;6.78;5.03;;;16.70;50.20;;;;;;5018028;28;20592;-55
2022/12/29 01:43:45;;;;;;;6.50;5.13;;;16.70;50.20;;;;;;5017479;28;20204;-54
2022/12/29 01:46:20;;;;;;;6.20;4.55;;;16.60;50.10;;;;;;5035089;28;20732;-55
2022/12/29 01:48:49;;;;;;;5.60;4.88;;;16.60;50.20;;;;;;5035136;28;20203;-55
2022/12/29 01:51:16;;;;;;;5.97;4.65;;;16.60;50.20;;;;;;5035286;28;20192;-54
2022/12/29 01:53:43;;;;;;;5.03;4.55;;;16.60;50.20;;;;;;5034906;28;20532;-55
2022/12/29 01:56:11;;;;;;;6.10;4.80;;;16.60;50.20;;;;;;5016937;28;20200;-55
2022/12/29 01:58:40;;;;;;;5.78;4.15;;;16.60;50.20;;;;;;5016989;28;20251;-55
2022/12/29 02:01:07;;;;;;;5.30;4.32;;;16.60;50.30;;;;;;5016914;28;20247;-55
2022/12/29 02:03:36;;;;;;;5.70;4.55;;;16.60;50.30;;;;;;5035735;28;20286;-54
2022/12/29 02:06:08;;;;;;;5.38;3.83;;;16.60;50.40;;;;;;5036716;28;20266;-55
2022/12/29 02:08:38;;;;;;;6.43;4.30;;;16.60;50.40;;;;;;5036442;28;20234;-55
2022/12/29 02:11:05;;;;;;;5.15;4.18;;;16.60;50.40;;;;;;5054654;28;20195;-54
2022/12/29 02:13:34;;;;;;;5.45;4.40;;;16.60;50.40;;;;;;5054535;28;20180;-55
2022/12/29 02:16:05;;;;;;;4.75;3.90;;;16.60;50.40;;;;;;5036435;28;20230;-54
2022/12/29 02:18:36;;;;;;;5.47;4.05;;;16.60;50.40;;;;;;5054109;28;20689;-54
2022/12/29 02:21:30;;;;;;;5.45;4.03;;;16.60;50.50;;;;;;5036210;28;20242;-55
2022/12/29 02:24:22;;;;;;;5.03;3.90;;;16.60;50.50;;;;;;5028704;28;20199;-55
2022/12/29 02:27:21;;;;;;;4.72;4.10;;;16.60;50.40;;;;;;5053314;28;20197;-54
2022/12/29 02:30:06;;;;;;;5.63;4.13;;;16.60;50.50;;;;;;4957090;28;20708;-54
2022/12/29 02:32:38;;;;;;;4.18;3.55;;;16.60;50.40;;;;;;5027350;28;20199;-55
2022/12/29 02:35:09;;;;;;;5.95;3.65;;;16.60;50.50;;;;;;5036139;28;20275;-55
2022/12/29 02:37:41;;;;;;;4.00;3.60;;;16.60;50.50;;;;;;5035875;28;20199;-55
2022/12/29 02:40:15;;;;;;;4.95;3.60;;;16.60;50.50;;;;;;5053787;28;20189;-55
2022/12/29 02:42:45;;;;;;;4.07;3.70;;;16.60;50.50;;;;;;5054503;28;20628;-54
2022/12/29 02:45:14;;;;;;;4.18;3.78;;;16.60;50.50;;;;;;5036393;28;20184;-54
2022/12/29 02:47:45;;;;;;;4.80;3.63;;;16.60;50.60;;;;;;5053875;28;20187;-55
2022/12/29 02:50:16;;;;;;;4.03;3.30;;;16.50;50.50;;;;;;5036034;28;20275;-55
2022/12/29 02:52:45;;;;;;;3.83;3.10;;;16.50;50.50;;;;;;5036019;28;20617;-54
2022/12/29 02:55:11;;;;;;;4.43;3.33;;;16.50;50.50;;;;;;5036655;28;20537;-55
2022/12/29 02:57:38;;;;;;;4.38;3.40;;;16.50;50.60;;;;;;5035936;28;20201;-55
2022/12/29 03:00:08;;;;;;;3.80;3.40;;;16.50;50.60;;;;;;5035759;28;20555;-55
2022/12/29 03:02:59;;;;;;;3.50;3.20;;;16.50;50.50;;;;;;5024964;28;20290;-55
2022/12/29 03:05:40;;;;;;;4.20;3.10;;;16.50;50.60;;;;;;5033604;28;20204;-54
2022/12/29 03:08:10;;;;;;;5.78;3.30;;;16.50;50.60;;;;;;5015773;28;20215;-54
2022/12/29 03:10:42;;;;;;;3.85;3.25;;;16.50;50.60;;;;;;5016546;28;20597;-54
2022/12/29 03:16:03;;;;;;;4.93;3.20;;;16.50;50.60;;;;;;5016637;28;20545;-54
2022/12/29 03:18:53;;;;;;;4.28;3.10;;;16.50;50.70;;;;;;5015651;28;20216;-54
2022/12/29 03:22:26;;;;;;;5.25;3.58;;;16.50;50.60;;;;;;5015488;28;20298;-54
2022/12/29 03:24:16;;;;;;;3.40;3.10;;;16.50;50.70;;;;;;5015440;28;20203;-54
2022/12/29 03:26:45;;;;;;;4.78;3.00;;;16.50;50.60;;;;;;5033202;28;20188;-54
2022/12/29 03:29:13;;;;;;;4.07;3.25;;;16.50;50.70;;;;;;5015550;28;20253;-55
2022/12/29 03:31:40;;;;;;;4.20;3.05;;;16.50;50.60;;;;;;5052807;22;20325;-82
2022/12/29 03:34:07;;;;;;;3.97;3.10;;;16.50;50.70;;;;;;5076312;28;20186;-82
2022/12/29 03:36:39;;;;;;;3.28;2.97;;;16.40;50.60;;;;;;5076629;28;20202;-82
2022/12/29 03:39:11;;;;;;;3.70;2.80;;;16.40;50.60;;;;;;5056874;28;20224;-82
2022/12/29 03:41:39;;;;;;;4.45;3.05;;;16.40;50.60;;;;;;5057113;28;20613;-82
2022/12/29 03:44:08;;;;;;;3.92;2.90;;;16.40;50.60;;;;;;5056448;28;20760;-82
2022/12/29 03:46:35;;;;;;;3.60;2.75;;;16.40;50.70;;;;;;5056225;28;20655;-82
2022/12/29 03:49:03;;;;;;;3.10;2.60;;;16.50;50.80;;;;;;5055647;28;20210;-82
2022/12/29 03:51:30;;;;;;;3.25;2.65;;;16.40;50.80;;;;;;5055788;28;20684;-82
2022/12/29 03:53:59;;;;;;;3.28;2.83;;;16.40;50.80;;;;;;5053726;28;20203;-82
2022/12/29 03:56:26;;;;;;;3.10;2.80;;;16.40;50.80;;;;;;5055663;28;20237;-82
2022/12/29 03:58:54;;;;;;;3.75;2.78;;;16.40;50.80;;;;;;5055680;28;20218;-82
2022/12/29 04:01:29;;;;;;;3.58;2.65;;;16.40;50.90;;;;;;5055591;28;20218;-82
2022/12/29 04:03:56;;;;;;;3.00;2.70;;;16.40;50.90;;;;;;5072736;28;20194;-82
2022/12/29 04:06:23;;;;;;;4.03;2.67;;;16.40;50.80;;;;;;5055160;28;20229;-82
2022/12/29 04:09:04;;;;;;;3.00;2.65;;;16.40;50.80;;;;;;5056309;28;20694;-81
2022/12/29 04:11:35;;;;;;;3.22;2.63;;;16.40;50.90;;;;;;5055962;28;20206;-82
2022/12/29 04:14:04;;;;;;;4.05;2.20;;;16.40;51.00;;;;;;5055800;28;20198;-82
2022/12/29 04:16:35;;;;;;;2.55;2.20;;;16.40;51.00;;;;;;5055194;28;20195;-82
2022/12/29 04:19:03;;;;;;;2.53;2.20;;;16.30;51.20;;;;;;5055433;28;20305;-82
2022/12/29 04:21:30;;;;;;;3.25;2.60;;;16.40;51.40;;;;;;5055481;28;20580;-82
2022/12/29 04:23:59;;;;;;;2.50;2.30;;;16.40;51.30;;;;;;5054858;28;20293;-82
2022/12/29 04:26:28;;;;;;;3.17;2.22;;;16.40;51.30;;;;;;5055252;28;20199;-82
2022/12/29 04:29:15;;;;;;;2.33;2.10;;;16.40;51.30;;;;;;5055694;28;20654;-81
2022/12/29 04:32:05;;;;;;;4.28;2.15;;;16.40;51.10;;;;;;5072987;28;20203;-82
2022/12/29 04:34:35;;;;;;;2.35;2.00;;;16.40;51.00;;;;;;5056153;28;20199;-81
2022/12/29 04:37:02;;;;;;;2.60;2.40;;;16.50;51.20;;;;;;5056569;28;20218;-82
2022/12/29 04:50:07;;;;;;;3.13;2.10;;;16.50;50.90;;;;;;5078682;28;20223;-52
2022/12/29 04:52:57;;;;;;;2.15;1.90;;;16.50;50.80;;;;;;5059153;28;20183;-52
2022/12/29 04:55:30;;;;;;;2.50;2.30;;;16.50;50.70;;;;;;5061572;28;20199;-52
2022/12/29 04:58:32;;;;;;;2.60;2.33;;;16.50;50.70;;;;;;5077639;28;20754;-52
2022/12/29 05:01:14;;;;;;;4.43;2.40;;;16.60;50.60;;;;;;5061814;28;20240;-52
2022/12/29 05:06:49;;;;;;;2.58;2.28;;;16.60;50.70;;;;;;5058807;28;20194;-52
2022/12/29 05:09:23;;;;;;;2.15;1.95;;;16.60;50.60;;;;;;5041064;28;20211;-51
2022/12/29 05:33:32;;;;;;;2.17;1.88;;;16.60;50.00;;;;;;5566247;22;20257;-77
2022/12/29 05:36:05;;;;;;;2.35;1.90;;;16.60;50.00;;;;;;5055984;28;20553;-77
2022/12/29 05:38:34;;;;;;;2.70;2.00;;;16.70;49.90;;;;;;5055949;28;20202;-77
2022/12/29 05:41:02;;;;;;;2.22;2.03;;;16.70;50.00;;;;;;5055923;28;20202;-77
2022/12/29 05:43:50;;;;;;;2.00;1.90;;;16.70;49.80;;;;;;5072957;28;20224;-77
2022/12/29 05:46:42;;;;;;;2.80;2.30;;;16.70;49.90;;;;;;5055628;28;20194;-77
2022/12/29 05:49:17;;;;;;;2.30;2.10;;;16.70;49.70;;;;;;5056392;28;20233;-77
2022/12/29 05:51:55;;;;;;;2.30;2.08;;;16.70;49.70;;;;;;5055860;28;20193;-76
2022/12/29 05:54:24;;;;;;;2.10;1.90;;;16.80;49.90;;;;;;5055387;28;20195;-77
2022/12/29 05:56:52;;;;;;;2.15;1.95;;;16.80;49.80;;;;;;5055364;28;20195;-77
2022/12/29 05:59:21;;;;;;;2.47;2.22;;;16.80;49.80;;;;;;5056037;28;20286;-77
2022/12/29 06:01:50;;;;;;;2.15;2.00;;;16.80;49.70;;;;;;5056404;28;20214;-78
2022/12/29 06:04:20;;;;;;;2.47;1.80;;;16.80;49.70;;;;;;5055320;28;20283;-77
2022/12/29 06:06:48;;;;;;;2.67;2.10;;;16.80;49.70;;;;;;5056413;28;20632;-77
2022/12/29 06:09:23;;;;;;;2.58;2.38;;;16.80;49.70;;;;;;5057220;28;20194;-77
2022/12/29 06:11:50;;;;;;;2.47;2.10;;;16.90;49.50;;;;;;5054925;28;20186;-76
2022/12/29 06:14:19;;;;;;;1.95;1.85;;;16.90;49.50;;;;;;5055579;28;20198;-77
2022/12/29 06:16:47;;;;;;;1.80;1.70;;;16.90;50.40;;;;;;5055469;28;20294;-77
2022/12/29 06:19:14;;;;;;;2.20;1.95;;;16.90;49.90;;;;;;5055375;28;20709;-78
2022/12/29 06:21:43;;;;;;;3.58;2.05;;;16.90;50.00;;;;;;5055049;28;20222;-78
2022/12/29 06:24:10;;;;;;;2.33;1.92;;;16.90;50.00;;;;;;5056475;28;20194;-78
2022/12/29 06:26:41;;;;;;;2.63;1.83;;;16.90;50.20;;;;;;5056058;28;20213;-78
2022/12/29 06:29:09;;;;;;;3.75;2.20;;;16.90;50.50;;;;;;5055976;28;20191;-78
2022/12/29 06:31:36;;;;;;;2.72;2.08;;;17.00;50.50;;;;;;5056170;28;20330;-78
2022/12/29 06:34:04;;;;;;;2.20;1.75;;;17.00;50.60;;;;;;5056162;28;20257;-78
2022/12/29 06:36:31;;;;;;;1.92;1.70;;;17.00;50.40;;;;;;5055317;28;20194;-77
2022/12/29 06:39:01;;;;;;;1.95;1.77;;;17.00;50.60;;;;;;5054859;28;20736;-77
2022/12/29 06:41:29;;;;;;;2.38;1.90;;;17.10;50.40;;;;;;5054797;28;20225;-77
2022/12/29 06:44:15;;;;;;;2.42;1.80;;;17.10;50.30;;;;;;5072261;28;20194;-78
2022/12/29 06:46:57;;;;;;;3.90;1.90;;;17.10;50.20;;;;;;5052719;28;20187;-76
2022/12/29 06:49:26;;;;;;;1.80;1.70;;;17.10;51.20;;;;;;5052980;28;20619;-80
2022/12/29 06:51:58;;;;;;;4.25;1.90;;;17.10;50.70;;;;;;5053309;28;20194;-76
2022/12/29 06:54:30;;;;;;;1.80;1.70;;;17.10;50.40;;;;;;5052752;28;20194;-76
2022/12/29 06:57:00;;;;;;;1.80;1.70;;;17.20;50.60;;;;;;5052648;28;20621;-76
2022/12/29 06:59:30;;;;;;;2.10;1.90;;;17.10;50.50;;;;;;5052923;28;20282;-76
2022/12/29 07:02:01;;;;;;;2.80;1.65;;;17.20;50.60;;;;;;5052671;28;20250;-76
2022/12/29 07:04:32;;;;;;;2.20;1.95;;;17.10;50.80;;;;;;5052592;28;20736;-76
2022/12/29 07:07:01;;;;;;;1.90;1.80;;;17.10;50.80;;;;;;5052622;28;20333;-77
2022/12/29 07:09:31;;;;;;;1.80;1.58;;;17.20;51.00;;;;;;5052914;28;20237;-79
2022/12/29 07:12:00;;;;;;;1.88;1.77;;;17.20;50.80;;;;;;5071456;28;20641;-79
2022/12/29 07:14:26;;;;;;;3.15;1.83;;;17.20;50.60;;;;;;5054139;28;20281;-79
2022/12/29 07:16:54;;;;;;;2.47;1.67;;;17.30;50.40;;;;;;5054619;28;20277;-79
2022/12/29 07:19:22;;;;;;;2.25;1.60;;;17.30;50.20;;;;;;5054312;28;20642;-79
2022/12/29 07:21:52;;;;;;;2.72;1.90;;;17.30;50.00;;;;;;5055091;28;20563;-79
2022/12/29 07:24:21;;;;;;;2.33;2.13;;;17.30;49.90;;;;;;5053685;28;20208;-76
2022/12/29 07:26:53;;;;;;;3.15;1.80;;;17.30;49.50;;;;;;5053341;28;20274;-76
2022/12/29 07:29:25;;;;;;;2.00;1.80;;;17.30;49.60;;;;;;5078257;23;20280;-79
2022/12/29 07:31:57;;;;;;;1.70;1.60;;;17.30;49.40;;;;;;5056479;28;20213;-80
2022/12/29 07:34:25;;;;;;;2.50;1.70;;;17.40;49.30;;;;;;5073748;28;20189;-80
2022/12/29 07:36:59;;;;;;;2.05;1.70;;;17.40;49.30;;;;;;5055241;28;20191;-80
2022/12/29 07:39:29;;;;;;;2.03;1.80;;;17.40;49.10;;;;;;5055516;28;20214;-80
2022/12/29 07:41:58;;;;;;;3.13;1.60;;;17.40;49.00;;;;;;5055758;28;20201;-80
2022/12/29 07:44:28;;;;;;;3.00;1.85;;;17.40;48.90;;;;;;5055820;28;20191;-79
2022/12/29 07:47:14;;;;;;;1.95;1.60;;;17.50;48.90;;;;;;5073623;28;20240;-78
2022/12/29 07:49:44;;;;;;;1.65;1.55;;;17.50;48.80;;;;;;5054923;28;20313;-79
2022/12/29 07:52:14;;;;;;;1.83;1.73;;;17.50;49.50;;;;;;5055599;28;20203;-79
2022/12/29 07:55:07;;;;;;;1.60;1.50;;;17.50;48.70;;;;;;5055747;28;20262;-80
2022/12/29 07:57:53;;;;;;;2.45;1.65;;;17.60;48.60;;;;;;5055526;28;20268;-80
2022/12/29 08:00:23;;;;;;;2.60;1.70;;;17.60;48.40;;;;;;5053018;28;20214;-79
2022/12/29 08:02:53;;;;;;;4.30;1.92;;;17.60;48.40;;;;;;5055177;28;20242;-80
2022/12/29 08:05:20;;;;;;;1.75;1.60;;;17.60;48.40;;;;;;5054923;28;20748;-79
2022/12/29 08:07:50;;;;;;;3.80;1.70;;;17.60;48.90;;;;;;5055094;28;20681;-80
2022/12/29 08:10:41;;;;;;;2.38;1.50;;;17.70;48.50;;;;;;5055587;28;20222;-79
2022/12/29 08:13:12;;;;;;;1.75;1.65;;;17.70;48.40;;;;;;5055167;28;20195;-79
2022/12/29 08:15:39;;;;;;;1.70;1.60;;;17.70;48.40;;;;;;5056473;28;20260;-80
2022/12/29 08:18:09;;;;;;;1.60;1.50;;;17.70;48.40;;;;;;5056424;28;20191;-80
2022/12/29 08:20:37;;;;;;;2.63;1.92;;;17.70;48.40;;;;;;5056483;28;20224;-80
2022/12/29 08:23:16;;;;;;;2.20;2.00;;;17.70;48.40;;;;;;5056023;28;20221;-80
2022/12/29 08:25:59;;;;;;;2.70;2.20;;;17.70;48.20;;;;;;5060177;28;20285;-80
2022/12/29 08:28:33;;;;;;;4.07;3.30;;;17.80;48.50;;;;;;5059811;28;20183;-79
2022/12/29 08:31:11;;;;;;;3.17;2.90;;;17.70;48.40;;;;;;5059976;28;20261;-80
2022/12/29 08:33:38;;;;;;;2.70;2.50;;;17.70;48.40;;;;;;5059879;28;20186;-80
2022/12/29 08:36:07;;;;;;;2.67;2.47;;;17.80;48.40;;;;;;5060020;28;20654;-80
2022/12/29 08:38:37;;;;;;;3.88;3.47;;;17.80;48.50;;;;;;5058998;28;20194;-80
2022/12/29 08:41:08;;;;;;;3.25;2.53;;;17.80;48.40;;;;;;5059026;28;20216;-80
2022/12/29 08:43:37;;;;;;;4.57;3.20;;;17.80;48.40;;;;;;5059594;28;20234;-80
2022/12/29 08:46:11;;;;;;;2.90;2.60;;;17.80;48.40;;;;;;5059226;28;20256;-80
2022/12/29 08:48:39;;;;;;;3.92;2.40;;;17.80;48.40;;;;;;5059195;28;20199;-80
2022/12/29 08:51:06;;;;;;;4.22;3.00;;;17.80;48.40;;;;;;5058697;28;20658;-80
2022/12/29 08:53:40;;;;;;;3.60;2.80;;;17.80;48.40;;;;;;5058671;28;20190;-80
2022/12/29 08:56:09;;;;;;;4.55;3.08;;;17.90;48.40;;;;;;5058558;28;20195;-80
2022/12/29 08:59:05;;;;;;;3.20;2.50;;;17.90;48.40;;;;;;5058693;28;20194;-80
2022/12/29 09:01:40;;;;;;;4.05;2.83;;;17.90;48.30;;;;;;5059034;28;20201;-80
2022/12/29 09:04:16;;;;;;;9.60;5.72;;;17.90;48.30;;;;;;5058996;28;20210;-79
2022/12/29 09:06:51;;;;;;;10.35;5.97;;;17.90;48.30;;;;;;5059765;28;20273;-80
2022/12/29 09:09:19;;;;;;;5.78;3.38;;;18.00;48.20;;;;;;5059631;28;20683;-80
2022/12/29 09:11:47;;;;;;;4.78;3.13;;;18.00;48.30;;;;;;5059562;28;20194;-80
2022/12/29 09:14:19;;;;;;;5.53;3.22;;;18.00;48.30;;;;;;5059293;28;20236;-79
2022/12/29 09:19:32;;;;;;;3.03;2.20;;;18.00;48.10;;;;;;5076607;28;20206;-80
2022/12/29 09:22:00;;;;;;;3.13;2.20;;;18.00;48.00;;;;;;5059895;28;20202;-79
2022/12/29 09:24:33;;;;;;;2.17;1.98;;;18.10;48.10;;;;;;5059792;28;20716;-79
2022/12/29 09:27:06;;;;;;;2.35;2.10;;;18.10;48.10;;;;;;5059922;28;20202;-79
2022/12/29 09:29:37;;;;;;;4.38;2.20;;;18.10;48.00;;;;;;5060462;28;20219;-79
2022/12/29 09:32:05;;;;;;;3.30;2.10;;;18.20;48.10;;;;;;5061222;28;20202;-80
2022/12/29 09:34:32;;;;;;;2.92;2.05;;;18.20;48.00;;;;;;5057870;28;20198;-79
2022/12/29 09:36:59;;;;;;;2.80;1.92;;;18.20;48.00;;;;;;5057810;28;20694;-79
2022/12/29 09:39:30;;;;;;;2.08;1.90;;;18.10;48.00;;;;;;5057771;28;20544;-79
2022/12/29 09:42:02;;;;;;;3.05;2.28;;;18.20;47.90;;;;;;5057743;28;20697;-79
2022/12/29 09:44:44;;;;;;;2.70;2.10;;;18.20;47.90;;;;;;5057821;28;20199;-79
2022/12/29 09:47:14;;;;;;;2.20;1.90;;;18.20;48.10;;;;;;5056985;28;20229;-79
2022/12/29 09:49:45;;;;;;;2.30;2.00;;;18.20;48.30;;;;;;5074880;28;20297;-79
2022/12/29 09:52:14;;;;;;;1.83;1.65;;;18.20;48.00;;;;;;5057705;28;20194;-80
2022/12/29 09:54:46;;;;;;;2.00;1.80;;;18.20;48.20;;;;;;5056653;28;20191;-78
2022/12/29 09:57:16;;;;;;;2.92;2.17;;;18.20;48.10;;;;;;5056775;28;20228;-81
2022/12/29 09:59:44;;;;;;;2.22;1.95;;;18.30;48.90;;;;;;5056408;28;20757;-80
2022/12/29 10:02:22;;;;;;;3.05;1.90;;;18.30;48.60;;;;;;5057181;28;20191;-81
2022/12/29 10:04:50;;;;;;;2.00;1.80;;;18.30;48.20;;;;;;5056216;28;20264;-78
2022/12/29 10:07:25;;;;;;;2.03;1.80;;;18.30;48.50;;;;;;5056577;28;20281;-81
2022/12/29 10:09:57;;;;;;;2.00;1.80;;;18.30;48.60;;;;;;5056223;28;20217;-79
2022/12/29 10:12:31;;;;;;;2.38;1.85;;;18.30;48.50;;;;;;5056834;28;20199;-80
2022/12/29 10:15:04;;;;;;;2.00;1.80;;;18.40;48.30;;;;;;5057516;28;20191;-79
2022/12/29 10:17:39;;;;;;;2.38;1.90;;;18.50;48.30;;;;;;5056926;28;20185;-80
2022/12/29 10:20:33;;;;;;;2.47;1.80;;;18.50;48.20;;;;;;5057318;28;20364;-78
2022/12/29 10:23:16;;;;;;;2.22;1.90;;;18.50;48.20;;;;;;5070774;28;20268;-80
2022/12/29 10:25:49;;;;;;;2.60;1.90;;;18.40;48.70;;;;;;5056175;28;20241;-79
2022/12/29 10:28:20;;;;;;;1.92;1.73;;;18.50;48.00;;;;;;5055870;28;20725;-79
2022/12/29 10:34:40;;;;;;;3.00;1.80;;;18.50;48.00;;;;;;5076786;28;20272;-79
2022/12/29 10:37:12;;;;;;;2.97;1.70;;;18.60;48.00;;;;;;5056217;28;20222;-79
2022/12/29 10:39:42;;;;;;;2.53;1.85;;;18.50;47.90;;;;;;5055975;28;20234;-78
2022/12/29 10:42:14;;;;;;;2.20;1.98;;;18.60;48.00;;;;;;5056866;28;20645;-80
2022/12/29 10:44:43;;;;;;;2.00;1.80;;;18.60;47.90;;;;;;5074683;28;20202;-79
2022/12/29 10:47:16;;;;;;;2.25;1.90;;;18.60;47.90;;;;;;5055852;28;20191;-79
2022/12/29 10:49:47;;;;;;;2.33;1.90;;;18.60;47.70;;;;;;5057079;28;20561;-80
2022/12/29 10:52:14;;;;;;;2.03;1.70;;;18.60;47.60;;;;;;5056475;28;20199;-79
2022/12/29 10:54:46;;;;;;;1.98;1.65;;;18.70;47.60;;;;;;5056372;28;20237;-80
2022/12/29 10:57:18;;;;;;;2.75;1.92;;;18.70;47.60;;;;;;5056680;28;20209;-80
2022/12/29 10:59:46;;;;;;;2.13;1.80;;;18.80;47.50;;;;;;5057282;28;20222;-81
2022/12/29 11:02:55;;;;;;;1.75;1.65;;;18.80;47.40;;;;;;5057087;28;20205;-80
2022/12/29 11:05:27;;;;;;;2.00;1.80;;;18.80;47.60;;;;;;5057454;28;20195;-80
2022/12/29 11:07:57;;;;;;;2.17;1.70;;;18.80;47.70;;;;;;5060110;28;20197;-80
2022/12/29 11:10:40;;;;;;;2.78;1.92;;;18.80;47.60;;;;;;5056276;28;20218;-80
2022/12/29 11:13:13;;;;;;;2.00;1.80;;;18.80;47.80;;;;;;5055531;28;20297;-80
2022/12/29 11:15:48;;;;;;;2.05;1.83;;;18.80;47.90;;;;;;5055736;28;20190;-80
2022/12/29 11:18:23;;;;;;;1.95;1.73;;;18.80;47.80;;;;;;5055487;28;20226;-80
2022/12/29 11:20:54;;;;;;;1.70;1.60;;;18.80;47.70;;;;;;5055244;28;20317;-81
2022/12/29 11:23:29;;;;;;;2.17;1.88;;;18.80;47.50;;;;;;5055081;28;20210;-79
2022/12/29 11:26:27;;;;;;;2.70;1.65;;;18.90;47.70;;;;;;5054522;28;20206;-77
2022/12/29 11:29:23;;;;;;;1.70;1.58;;;18.80;47.60;;;;;;5041071;28;20198;-77
2022/12/29 11:31:51;;;;;;;2.65;1.70;;;18.80;47.50;;;;;;5054186;28;20205;-77
2022/12/29 11:34:23;;;;;;;2.13;1.92;;;18.80;47.70;;;;;;5054222;28;20199;-77
2022/12/29 11:37:00;;;;;;;1.98;1.55;;;18.80;47.70;;;;;;5054175;28;20194;-78
2022/12/29 11:39:39;;;;;;;2.05;1.85;;;18.80;47.80;;;;;;5054082;28;20224;-77
2022/12/29 11:42:11;;;;;;;1.92;1.83;;;18.70;47.70;;;;;;5054107;28;20285;-77
2022/12/29 11:44:48;;;;;;;1.80;1.70;;;18.70;47.80;;;;;;5053861;28;20240;-77
2022/12/29 11:47:25;;;;;;;1.98;1.77;;;18.80;47.90;;;;;;5072088;28;20187;-78
2022/12/29 11:49:53;;;;;;;2.00;1.80;;;18.80;48.00;;;;;;5053828;28;20308;-77
2022/12/29 11:52:34;;;;;;;2.00;1.90;;;18.70;48.00;;;;;;5053800;28;20218;-78
2022/12/29 11:55:02;;;;;;;1.75;1.60;;;18.80;48.10;;;;;;5054034;28;20191;-78
2022/12/29 11:57:33;;;;;;;2.17;1.80;;;18.80;48.00;;;;;;5054316;28;20294;-78
2022/12/29 12:00:01;;;;;;;1.88;1.60;;;18.80;48.00;;;;;;5058000;28;20597;-78
2022/12/29 12:02:46;;;;;;;2.58;1.85;;;18.80;47.80;;;;;;5076237;28;20174;-78
2022/12/29 12:05:41;;;;;;;1.98;1.83;;;18.80;47.80;;;;;;5058432;28;20259;-78
2022/12/29 12:08:15;;;;;;;2.08;1.70;;;18.80;47.90;;;;;;5049486;28;20194;-77
2022/12/29 12:10:51;;;;;;;1.73;1.63;;;18.80;47.70;;;;;;5057933;28;20221;-78
2022/12/29 12:13:34;;;;;;;1.67;1.58;;;18.80;47.80;;;;;;5058669;28;20201;-77
2022/12/29 12:16:12;;;;;;;3.25;1.80;;;18.80;47.80;;;;;;5060149;28;20278;-79
2022/12/29 12:18:49;;;;;;;2.05;1.85;;;18.80;47.70;;;;;;5059010;28;20198;-79
2022/12/29 12:21:26;;;;;;;2.08;1.63;;;18.90;47.70;;;;;;5059802;28;20301;-80
2022/12/29 12:24:17;;;;;;;1.73;1.60;;;18.80;47.60;;;;;;5060063;28;20618;-80
2022/12/29 12:27:09;;;;;;;1.60;1.50;;;18.80;47.60;;;;;;5059744;28;20191;-80
2022/12/29 12:29:39;;;;;;;1.60;1.50;;;18.90;47.70;;;;;;5059350;28;20215;-80
2022/12/29 12:32:14;;;;;;;2.80;1.60;;;18.90;47.70;;;;;;5059861;28;20536;-80
2022/12/29 12:34:43;;;;;;;1.70;1.60;;;18.80;47.70;;;;;;5058908;28;20201;-80
2022/12/29 12:37:54;;;;;;;1.88;1.67;;;18.80;47.70;;;;;;5059170;28;20186;-80
2022/12/29 12:40:39;;;;;;;1.60;1.50;;;18.80;47.80;;;;;;5047454;28;20237;-79
2022/12/29 12:47:07;;;;;;;1.70;1.60;;;18.90;47.70;;;;;;5078588;28;20213;-81
2022/12/29 12:50:09;;;;;;;1.50;1.40;;;18.90;47.90;;;;;;5060912;28;20224;-81
2022/12/29 12:52:43;;;;;;;1.83;1.52;;;18.80;47.90;;;;;;5025202;28;20199;-82
2022/12/29 12:55:22;;;;;;;1.80;1.70;;;18.90;48.00;;;;;;5062152;28;20191;-83
2022/12/29 12:57:55;;;;;;;1.70;1.60;;;18.90;48.10;;;;;;5062778;28;20258;-82
2022/12/29 13:00:28;;;;;;;1.70;1.60;;;18.90;47.90;;;;;;5059557;28;20287;-82
2022/12/29 13:03:04;;;;;;;1.90;1.70;;;18.90;47.90;;;;;;5060726;28;20252;-81
2022/12/29 13:05:56;;;;;;;1.88;1.65;;;18.90;47.90;;;;;;5059721;28;20256;-82
2022/12/29 13:08:33;;;;;;;1.63;1.52;;;18.90;47.90;;;;;;5059761;28;20252;-81
2022/12/29 13:11:04;;;;;;;1.85;1.60;;;18.90;47.80;;;;;;5058764;28;20249;-82
2022/12/29 13:13:53;;;;;;;1.98;1.88;;;19.00;47.90;;;;;;5059403;28;20633;-81
2022/12/29 13:16:45;;;;;;;1.75;1.60;;;19.00;47.80;;;;;;5058702;28;20260;-82
2022/12/29 13:22:39;;;;;;;1.75;1.65;;;19.00;47.70;;;;;;5058965;28;20179;-82
2022/12/29 13:25:25;;;;;;;1.65;1.55;;;19.00;47.70;;;;;;5059003;28;20213;-83
2022/12/29 13:27:55;;;;;;;2.45;1.77;;;19.00;47.70;;;;;;5059320;28;20289;-82
2022/12/29 13:30:29;;;;;;;1.73;1.55;;;19.10;47.90;;;;;;5058997;28;20237;-81
2022/12/29 13:33:05;;;;;;;1.77;1.67;;;19.10;47.70;;;;;;5059074;28;20199;-82
2022/12/29 13:35:57;;;;;;;1.75;1.60;;;19.10;47.70;;;;;;5059350;28;20183;-81
2022/12/29 13:38:26;;;;;;;1.70;1.60;;;19.10;47.90;;;;;;5059647;28;20195;-83
2022/12/29 13:40:55;;;;;;;2.25;1.48;;;19.00;47.90;;;;;;5059741;28;20214;-82
2022/12/29 13:43:22;;;;;;;1.67;1.42;;;19.00;47.90;;;;;;5058885;28;20649;-82
2022/12/29 13:46:04;;;;;;;1.70;1.60;;;19.00;47.90;;;;;;5058508;28;20219;-82
2022/12/29 13:48:38;;;;;;;1.92;1.80;;;19.00;48.00;;;;;;5058396;28;20253;-82
2022/12/29 13:51:09;;;;;;;1.65;1.55;;;19.00;48.00;;;;;;5058845;28;20575;-82
2022/12/29 13:57:09;;;;;;;1.60;1.50;;;19.00;47.90;;;;;;5077036;28;20217;-82
2022/12/29 13:59:41;;;;;;;1.70;1.60;;;19.00;48.00;;;;;;5058217;28;20314;-82
2022/12/29 14:02:18;;;;;;;2.00;1.80;;;19.00;47.90;;;;;;5058611;28;20195;-83
2022/12/29 14:05:01;;;;;;;1.60;1.50;;;19.00;47.80;;;;;;5057789;28;20221;-82
2022/12/29 14:07:30;;;;;;;1.92;1.67;;;19.00;47.90;;;;;;5057817;28;20709;-83
2022/12/29 14:10:01;;;;;;;2.05;1.60;;;19.00;47.80;;;;;;5057231;28;20226;-83
2022/12/29 14:12:40;;;;;;;1.60;1.50;;;19.00;47.90;;;;;;5057054;28;20540;-81
2022/12/29 14:15:24;;;;;;;1.42;1.33;;;19.00;47.90;;;;;;5057636;28;20533;-83
2022/12/29 14:18:14;;;;;;;1.55;1.45;;;19.00;47.90;;;;;;5057931;28;20187;-83
2022/12/29 14:20:50;;;;;;;1.52;1.42;;;19.00;47.90;;;;;;5058513;28;20227;-83
2022/12/29 14:23:29;;;;;;;1.52;1.42;;;19.00;47.90;;;;;;5058606;28;20199;-82
2022/12/29 14:26:14;;;;;;;1.60;1.50;;;19.00;47.90;;;;;;5057455;28;20218;-82
2022/12/29 14:28:45;;;;;;;1.90;1.52;;;19.10;47.80;;;;;;5056498;28;20627;-81
2022/12/29 14:31:40;;;;;;;2.17;1.77;;;19.10;47.70;;;;;;5056727;28;20210;-82
2022/12/29 14:34:31;;;;;;;1.83;1.40;;;19.10;47.70;;;;;;5057098;28;20187;-80
2022/12/29 14:36:59;;;;;;;1.65;1.50;;;19.20;47.50;;;;;;5076097;28;20696;-81
2022/12/29 14:39:37;;;;;;;1.70;1.60;;;19.20;47.50;;;;;;5075441;28;20580;-82
2022/12/29 14:42:06;;;;;;;1.60;1.50;;;19.20;47.50;;;;;;5056437;28;20198;-79
2022/12/29 14:44:46;;;;;;;1.90;1.70;;;19.20;47.50;;;;;;5056824;28;20269;-80